Carrollton, Mississippi
Current Conditions -  °F | °C
As of 10:53 PM on Saturday 20 Dec 2014 (Local Time) from KGWO Reporting Station
Clear Clear  
Wind Chill: 30°   Ceiling: Unl
Heat Index: 34°   Visibility: 10mi
Dew Point: 32°   Wind: 5mph
Humidity: 92%   Direction: 50°NE
Pressure: 30.23"   Gusts: NA
Location:  33.51°N, 89.92°W
Report Text: KGWO 210453Z AUTO 05004KT 10SM CLR 01/00 A3023 RMK AO2 SLP238 T00110000
Loading
Personal Weather Stations






























Interactive Weather Map New forecast layout! Learn more

10-Day Weather Forecast

Advertisements
Track Severe Weather on mobile